createdAt,value
2023-03-22T00:00:35.424Z,26.54
2023-03-22T00:01:40.458Z,26.53
2023-03-22T00:02:43.098Z,26.53
2023-03-22T00:03:46.533Z,26.55
2023-03-22T00:04:49.321Z,26.54
2023-03-22T00:05:56.615Z,26.54
2023-03-22T00:07:01.142Z,26.53
2023-03-22T00:08:05.679Z,26.53
2023-03-22T00:09:09.027Z,26.53
2023-03-22T00:10:13.784Z,26.52
2023-03-22T00:11:17.333Z,26.52
2023-03-22T00:12:20.786Z,26.53
2023-03-22T00:13:24.721Z,26.54
2023-03-22T00:14:27.923Z,26.53
2023-03-22T00:15:30.882Z,26.52
2023-03-22T00:16:35.130Z,26.53
2023-03-22T00:17:38.074Z,26.53
2023-03-22T00:18:40.710Z,26.54
2023-03-22T00:19:44.825Z,26.51
2023-03-22T00:20:49.238Z,26.51
2023-03-22T00:21:51.629Z,26.55
2023-03-22T00:22:54.793Z,26.57
2023-03-22T00:23:58.135Z,26.57
2023-03-22T00:25:00.702Z,26.57
2023-03-22T00:26:04.051Z,26.57
2023-03-22T00:27:07.560Z,26.57
2023-03-22T00:28:10.826Z,26.57
2023-03-22T00:29:15.339Z,26.57
2023-03-22T00:30:19.688Z,26.57
2023-03-22T00:31:23.434Z,26.58
2023-03-22T00:32:26.979Z,26.58
2023-03-22T00:33:30.223Z,26.57
2023-03-22T00:34:33.706Z,26.57
2023-03-22T00:35:38.731Z,26.56
2023-03-22T00:36:42.779Z,26.57
2023-03-22T00:37:46.166Z,26.57
2023-03-22T00:38:51.819Z,26.57
2023-03-22T00:39:56.823Z,26.57
2023-03-22T00:41:11.389Z,26.58
2023-03-22T00:42:14.433Z,26.57
2023-03-22T00:43:17.010Z,26.56
2023-03-22T00:44:20.147Z,26.56
2023-03-22T00:45:23.694Z,26.57
2023-03-22T00:46:26.822Z,26.56
2023-03-22T00:47:29.752Z,26.56
2023-03-22T00:48:32.747Z,26.56
2023-03-22T00:49:37.399Z,26.56
2023-03-22T00:50:41.116Z,26.57
2023-03-22T00:51:44.256Z,26.56
2023-03-22T00:52:47.049Z,26.57
2023-03-22T00:53:51.643Z,26.56
2023-03-22T00:54:54.906Z,26.56
2023-03-22T00:55:58.435Z,26.56
2023-03-22T00:57:01.843Z,26.55
2023-03-22T00:58:05.506Z,26.55
2023-03-22T01:00:25.875Z,26.67
2023-03-22T01:01:29.008Z,26.54
2023-03-22T01:02:33.483Z,26.55
2023-03-22T01:03:38.510Z,26.54
2023-03-22T01:04:45.853Z,26.54
2023-03-22T01:05:49.968Z,26.54
2023-03-22T01:08:12.381Z,26.66
2023-03-22T01:09:16.440Z,26.54
2023-03-22T01:10:20.395Z,26.54
2023-03-22T01:11:24.487Z,26.53
2023-03-22T01:12:26.999Z,26.54
2023-03-22T01:13:29.871Z,26.54
2023-03-22T01:14:32.452Z,26.54
2023-03-22T01:15:35.611Z,26.55
2023-03-22T01:16:38.457Z,26.49
2023-03-22T01:17:41.728Z,26.49
2023-03-22T01:18:44.727Z,26.55
2023-03-22T01:19:47.304Z,26.57
2023-03-22T01:20:51.047Z,26.57
2023-03-22T01:21:54.906Z,26.57
2023-03-22T01:22:59.023Z,26.56
2023-03-22T01:24:02.764Z,26.55
2023-03-22T01:25:06.326Z,26.55
2023-03-22T01:26:10.526Z,26.54
2023-03-22T01:27:13.780Z,26.54
2023-03-22T01:28:16.431Z,26.54
2023-03-22T01:29:20.056Z,26.55
2023-03-22T01:30:23.459Z,26.55
2023-03-22T01:31:26.734Z,26.55
2023-03-22T01:32:30.066Z,26.54
2023-03-22T01:33:32.792Z,26.54
2023-03-22T01:34:35.257Z,26.55
2023-03-22T01:35:39.153Z,26.55
2023-03-22T01:36:42.979Z,26.54
2023-03-22T01:37:45.810Z,26.54
2023-03-22T01:38:49.220Z,26.54
2023-03-22T01:39:53.007Z,26.54
2023-03-22T01:40:56.692Z,26.54
2023-03-22T01:42:03.047Z,26.54
2023-03-22T01:44:22.968Z,26.64
2023-03-22T01:45:38.384Z,26.53
2023-03-22T01:46:42.059Z,26.51
2023-03-22T01:47:55.790Z,26.52
2023-03-22T01:49:07.351Z,26.53
2023-03-22T01:50:10.531Z,26.52
2023-03-22T01:51:18.498Z,26.52
2023-03-22T01:53:43.655Z,26.62
2023-03-22T01:54:47.831Z,26.51
2023-03-22T01:55:52.806Z,26.50
2023-03-22T01:56:57.485Z,26.49
2023-03-22T01:58:03.032Z,26.49
2023-03-22T01:59:10.993Z,26.50
2023-03-22T02:00:32.446Z,26.50
2023-03-22T02:01:37.385Z,26.50
2023-03-22T02:02:43.131Z,26.50
2023-03-22T02:05:19.027Z,26.60
2023-03-22T02:06:22.979Z,26.48
2023-03-22T02:07:27.283Z,26.47
2023-03-22T02:08:33.020Z,26.46
2023-03-22T02:09:39.279Z,26.47
2023-03-22T02:10:42.761Z,26.47
2023-03-22T02:13:19.897Z,26.57
2023-03-22T02:14:49.122Z,26.47
2023-03-22T02:18:05.703Z,26.55
2023-03-22T02:19:31.518Z,26.45
2023-03-22T02:22:52.916Z,26.50
2023-03-22T02:24:15.808Z,26.39
2023-03-22T02:25:55.568Z,26.37
2023-03-22T02:28:31.447Z,26.44
2023-03-22T02:31:33.764Z,26.40
2023-03-22T02:32:52.305Z,26.30
2023-03-22T02:34:13.658Z,26.29
2023-03-22T02:35:23.355Z,26.29
2023-03-22T02:36:47.856Z,26.29
2023-03-22T02:38:11.754Z,26.29
2023-03-22T02:40:40.297Z,26.37
2023-03-22T02:41:53.061Z,26.26
2023-03-22T02:43:11.079Z,26.26
2023-03-22T02:44:30.419Z,26.27
2023-03-22T02:45:52.600Z,26.28
2023-03-22T02:47:21.895Z,26.28
2023-03-22T02:48:31.057Z,26.28
2023-03-22T02:51:05.233Z,26.38
2023-03-22T02:52:20.880Z,26.28
2023-03-22T02:53:40.622Z,26.27
2023-03-22T02:56:21.121Z,26.40
2023-03-22T02:57:33.798Z,26.30
2023-03-22T02:58:52.670Z,26.30
2023-03-22T02:59:56.698Z,26.29
2023-03-22T03:02:18.089Z,26.42
2023-03-22T03:03:20.528Z,26.32
2023-03-22T03:04:32.468Z,26.33
2023-03-22T03:05:36.051Z,26.33
2023-03-22T03:06:43.188Z,26.35
2023-03-22T03:09:21.844Z,26.49
2023-03-22T03:10:24.984Z,26.39
2023-03-22T03:11:27.569Z,26.38
2023-03-22T03:12:30.539Z,26.39
2023-03-22T03:13:33.183Z,26.39
2023-03-22T03:14:35.963Z,26.41
2023-03-22T03:15:41.838Z,26.41
2023-03-22T03:16:46.072Z,26.42
2023-03-22T03:18:15.367Z,26.41
2023-03-22T03:19:23.515Z,26.43
2023-03-22T03:20:34.502Z,26.43
2023-03-22T03:21:55.189Z,26.41
2023-03-22T03:23:28.040Z,26.43
2023-03-22T03:24:46.936Z,26.43
2023-03-22T03:26:03.472Z,26.43
2023-03-22T03:28:46.073Z,26.51
2023-03-22T03:30:01.091Z,26.39
2023-03-22T03:31:22.073Z,26.38
2023-03-22T03:32:34.695Z,26.38
2023-03-22T03:33:41.812Z,26.38
2023-03-22T03:36:10.567Z,26.48
2023-03-22T03:37:21.690Z,26.37
2023-03-22T03:38:29.613Z,26.36
2023-03-22T03:39:36.095Z,26.37
2023-03-22T03:41:54.495Z,26.50
2023-03-22T03:42:57.297Z,26.39
2023-03-22T03:44:00.346Z,26.39
2023-03-22T03:45:03.375Z,26.40
2023-03-22T03:46:07.000Z,26.41
2023-03-22T03:47:10.152Z,26.43
2023-03-22T03:49:51.446Z,26.57
2023-03-22T03:50:54.274Z,26.47
2023-03-22T03:51:58.011Z,26.47
2023-03-22T03:53:01.070Z,26.49
2023-03-22T03:54:04.064Z,26.50
2023-03-22T03:55:07.764Z,26.50
2023-03-22T03:56:10.957Z,26.51
2023-03-22T03:57:16.138Z,26.52
2023-03-22T03:58:18.942Z,26.53
2023-03-22T03:59:22.514Z,26.53
2023-03-22T04:00:26.501Z,26.54
2023-03-22T04:01:51.171Z,26.54
2023-03-22T04:02:55.765Z,26.54
2023-03-22T04:04:00.361Z,26.55
2023-03-22T04:05:11.580Z,26.55
2023-03-22T04:06:14.199Z,26.54
2023-03-22T04:07:19.291Z,26.53
2023-03-22T04:08:21.834Z,26.54
2023-03-22T04:09:26.834Z,26.54
2023-03-22T04:10:31.735Z,26.54
2023-03-22T04:11:34.483Z,26.55
2023-03-22T04:12:38.050Z,26.54
2023-03-22T04:13:45.187Z,26.56
2023-03-22T04:14:52.042Z,26.55
2023-03-22T04:15:57.794Z,26.55
2023-03-22T04:17:00.877Z,26.57
2023-03-22T04:18:06.493Z,26.58
2023-03-22T04:19:10.098Z,26.57
2023-03-22T04:20:13.725Z,26.57
2023-03-22T04:21:16.250Z,26.58
2023-03-22T04:22:26.716Z,26.58
2023-03-22T04:23:32.477Z,26.58
2023-03-22T04:24:37.367Z,26.58
2023-03-22T04:25:41.577Z,26.58
2023-03-22T04:26:45.839Z,26.59
2023-03-22T04:28:03.677Z,26.58
2023-03-22T04:29:06.471Z,26.57
2023-03-22T04:30:12.202Z,26.58
2023-03-22T04:31:33.542Z,26.57
2023-03-22T04:32:38.331Z,26.58
2023-03-22T04:33:45.329Z,26.54
2023-03-22T04:34:50.849Z,26.54
2023-03-22T04:35:57.631Z,26.54
2023-03-22T04:37:02.560Z,26.54
2023-03-22T04:38:17.448Z,26.54
2023-03-22T04:39:21.222Z,26.54
2023-03-22T04:40:27.742Z,26.54
2023-03-22T04:41:38.433Z,26.54
2023-03-22T04:42:41.638Z,26.55
2023-03-22T04:43:46.528Z,26.55
2023-03-22T04:44:50.626Z,26.55
2023-03-22T04:45:54.107Z,26.56
2023-03-22T04:46:58.682Z,26.56
2023-03-22T04:48:01.897Z,26.56
2023-03-22T04:49:05.348Z,26.56
2023-03-22T04:50:10.476Z,26.57
2023-03-22T04:51:16.012Z,26.57
2023-03-22T04:52:20.704Z,26.57
2023-03-22T04:53:26.903Z,26.58
2023-03-22T04:54:31.687Z,26.57
2023-03-22T04:55:34.799Z,26.58
2023-03-22T04:56:37.545Z,26.58
2023-03-22T04:57:40.937Z,26.58
2023-03-22T04:58:43.805Z,26.60
2023-03-22T04:59:47.051Z,26.59
2023-03-22T05:00:52.278Z,26.60
2023-03-22T05:01:56.976Z,26.59
2023-03-22T05:03:03.334Z,26.61
2023-03-22T05:04:11.237Z,26.60
2023-03-22T05:05:13.850Z,26.62
2023-03-22T05:06:17.648Z,26.59
2023-03-22T05:07:34.300Z,26.61
2023-03-22T05:08:37.534Z,26.61
2023-03-22T05:09:40.866Z,26.61
2023-03-22T05:10:44.749Z,26.61
2023-03-22T05:11:47.264Z,26.60
2023-03-22T05:13:00.573Z,26.59
2023-03-22T05:14:05.154Z,26.60
2023-03-22T05:15:08.836Z,26.60
2023-03-22T05:16:15.444Z,26.60
2023-03-22T05:17:21.096Z,26.60
2023-03-22T05:18:25.823Z,26.60
2023-03-22T05:19:29.728Z,26.59
2023-03-22T05:20:32.810Z,26.58
2023-03-22T05:21:46.982Z,26.59
2023-03-22T05:22:51.028Z,26.60
2023-03-22T05:23:58.086Z,26.60
2023-03-22T05:25:00.853Z,26.59
2023-03-22T05:26:03.646Z,26.60
2023-03-22T05:27:07.901Z,26.60
2023-03-22T05:28:10.516Z,26.60
2023-03-22T05:29:23.957Z,26.61
2023-03-22T05:30:37.887Z,26.61
2023-03-22T05:31:42.655Z,26.60
2023-03-22T05:32:47.917Z,26.62
2023-03-22T05:33:51.366Z,26.60
2023-03-22T05:34:56.079Z,26.60
2023-03-22T05:36:00.733Z,26.61
2023-03-22T05:37:04.718Z,26.60
2023-03-22T05:38:23.481Z,26.61
2023-03-22T05:39:27.941Z,26.60
2023-03-22T05:40:31.240Z,26.61
2023-03-22T05:41:36.510Z,26.61
2023-03-22T05:42:38.890Z,26.62
2023-03-22T05:43:43.797Z,26.61
2023-03-22T05:44:47.333Z,26.61
2023-03-22T05:45:50.480Z,26.62
2023-03-22T05:47:06.606Z,26.61
2023-03-22T05:48:17.835Z,26.61
2023-03-22T05:49:21.806Z,26.61
2023-03-22T05:50:26.538Z,26.61
2023-03-22T05:51:31.879Z,26.61
2023-03-22T05:52:34.640Z,26.61
2023-03-22T05:53:42.135Z,26.61
2023-03-22T05:54:46.895Z,26.62
2023-03-22T05:55:50.079Z,26.63
2023-03-22T05:56:55.871Z,26.62
2023-03-22T05:58:01.216Z,26.62
2023-03-22T05:59:04.289Z,26.63
2023-03-22T06:00:15.641Z,26.64
2023-03-22T06:01:21.569Z,26.64
2023-03-22T06:02:25.390Z,26.65
2023-03-22T06:03:29.567Z,26.66
2023-03-22T06:04:34.137Z,26.65
2023-03-22T06:05:39.484Z,26.65
2023-03-22T06:06:43.381Z,26.66
2023-03-22T06:07:47.602Z,26.66
2023-03-22T06:08:51.785Z,26.66
2023-03-22T06:09:55.178Z,26.68
2023-03-22T06:10:58.890Z,26.67
2023-03-22T06:12:02.299Z,26.67
2023-03-22T06:13:05.822Z,26.67
2023-03-22T06:14:08.882Z,26.68
2023-03-22T06:15:13.888Z,26.68
2023-03-22T06:16:21.659Z,26.67
2023-03-22T06:17:25.029Z,26.67
2023-03-22T06:18:28.157Z,26.68
2023-03-22T06:19:33.209Z,26.68
2023-03-22T06:20:38.630Z,26.68
2023-03-22T06:21:44.524Z,26.66
2023-03-22T06:22:48.358Z,26.68
2023-03-22T06:23:52.626Z,26.68
2023-03-22T06:24:56.892Z,26.67
2023-03-22T06:26:01.410Z,26.68
2023-03-22T06:27:04.975Z,26.67
2023-03-22T06:28:20.328Z,26.67
2023-03-22T06:29:27.699Z,26.67
2023-03-22T06:30:32.277Z,26.67
2023-03-22T06:31:43.201Z,26.67
2023-03-22T06:32:46.361Z,26.67
2023-03-22T06:33:49.288Z,26.68
2023-03-22T06:34:56.600Z,26.68
2023-03-22T06:36:00.812Z,26.68
2023-03-22T06:37:08.065Z,26.68
2023-03-22T06:38:13.446Z,26.69
2023-03-22T06:39:16.215Z,26.69
2023-03-22T06:40:20.579Z,26.69
2023-03-22T06:41:23.366Z,26.70
2023-03-22T06:42:30.274Z,26.70
2023-03-22T06:43:38.156Z,26.70
2023-03-22T06:44:45.470Z,26.69
2023-03-22T06:45:52.720Z,26.69
2023-03-22T06:46:57.303Z,26.70
2023-03-22T06:48:18.637Z,26.69
2023-03-22T06:49:35.437Z,26.69
2023-03-22T06:50:38.820Z,26.69
2023-03-22T06:51:43.514Z,26.69
2023-03-22T06:52:46.074Z,26.68
2023-03-22T06:53:48.650Z,26.67
2023-03-22T06:54:51.478Z,26.67
2023-03-22T06:55:55.581Z,26.68
2023-03-22T06:56:59.841Z,26.67
2023-03-22T06:58:02.890Z,26.68
2023-03-22T06:59:06.271Z,26.67
2023-03-22T07:00:11.292Z,26.69
2023-03-22T07:01:15.372Z,26.68
2023-03-22T07:02:19.091Z,26.69
2023-03-22T07:03:24.767Z,26.70
2023-03-22T07:04:29.681Z,26.70
2023-03-22T07:05:34.153Z,26.70
2023-03-22T07:06:37.585Z,26.70
2023-03-22T07:07:41.281Z,26.70
2023-03-22T07:08:44.231Z,26.70
2023-03-22T07:09:48.031Z,26.71
2023-03-22T07:10:52.587Z,26.71
2023-03-22T07:11:57.488Z,26.71
2023-03-22T07:13:02.213Z,26.73
2023-03-22T07:14:06.314Z,26.73
2023-03-22T07:15:18.189Z,26.73
2023-03-22T07:16:22.659Z,26.74
2023-03-22T07:17:31.270Z,26.74
2023-03-22T07:18:35.823Z,26.74
2023-03-22T07:19:40.441Z,26.74
2023-03-22T07:20:43.141Z,26.74
2023-03-22T07:21:46.691Z,26.73
2023-03-22T07:22:51.010Z,26.74
2023-03-22T07:23:55.305Z,26.72
2023-03-22T07:25:01.846Z,26.74
2023-03-22T07:26:06.863Z,26.74
2023-03-22T07:27:12.214Z,26.76
2023-03-22T07:28:16.327Z,26.74
2023-03-22T07:29:19.134Z,26.76
2023-03-22T07:30:23.098Z,26.76
2023-03-22T07:31:26.562Z,26.75
2023-03-22T07:32:31.441Z,26.76
2023-03-22T07:33:39.499Z,26.76
2023-03-22T07:34:42.651Z,26.74
2023-03-22T07:35:50.276Z,26.73
2023-03-22T07:36:56.241Z,26.76
2023-03-22T07:38:00.406Z,26.77
2023-03-22T07:39:06.530Z,26.76
2023-03-22T07:40:13.004Z,26.77
2023-03-22T07:41:17.274Z,26.77
2023-03-22T07:42:27.954Z,26.77
2023-03-22T07:44:51.755Z,26.88
2023-03-22T07:45:54.420Z,26.78
2023-03-22T07:47:20.292Z,26.77
2023-03-22T07:50:57.228Z,26.76
2023-03-22T07:52:01.231Z,26.75
2023-03-22T07:53:04.196Z,26.76
2023-03-22T07:54:08.054Z,26.77
2023-03-22T07:55:11.765Z,26.77
2023-03-22T07:56:14.832Z,26.77
2023-03-22T07:57:17.694Z,26.78
2023-03-22T07:58:22.021Z,26.78
2023-03-22T07:59:24.968Z,26.78
2023-03-22T08:00:27.888Z,26.79
2023-03-22T08:01:32.310Z,26.78
2023-03-22T08:02:39.089Z,26.78
2023-03-22T08:03:42.233Z,26.79
2023-03-22T08:04:50.270Z,26.79
2023-03-22T08:05:53.576Z,26.79
2023-03-22T08:06:58.094Z,26.79
2023-03-22T08:08:01.594Z,26.79
2023-03-22T08:09:04.902Z,26.79
2023-03-22T08:10:09.214Z,26.79
2023-03-22T08:11:13.017Z,26.79
2023-03-22T08:12:17.204Z,26.79
2023-03-22T08:13:21.448Z,26.79
2023-03-22T08:14:35.446Z,26.79
2023-03-22T08:15:28.960Z,26.77
2023-03-22T08:16:32.687Z,26.76
2023-03-22T08:17:36.067Z,26.73
2023-03-22T08:18:40.515Z,26.71
2023-03-22T08:19:43.405Z,26.70
2023-03-22T08:22:06.856Z,26.73
2023-03-22T08:23:38.558Z,26.57
2023-03-22T08:24:45.912Z,26.52
2023-03-22T08:25:50.889Z,26.51
2023-03-22T08:26:54.504Z,26.50
2023-03-22T08:27:59.110Z,26.50
2023-03-22T08:29:02.827Z,26.50
2023-03-22T08:30:08.846Z,26.49
2023-03-22T08:31:15.252Z,26.49
2023-03-22T08:32:18.911Z,26.46
2023-03-22T08:33:23.406Z,26.37
2023-03-22T08:34:26.800Z,26.37
2023-03-22T08:35:44.345Z,26.40
2023-03-22T08:36:47.641Z,26.38
2023-03-22T08:37:59.013Z,26.38
2023-03-22T08:39:04.274Z,26.36
2023-03-22T08:40:12.724Z,26.31
2023-03-22T08:41:20.331Z,26.27
2023-03-22T08:42:22.805Z,26.26
2023-03-22T08:43:25.886Z,26.25
2023-03-22T08:44:29.014Z,26.22
2023-03-22T08:45:32.163Z,26.21
2023-03-22T08:46:36.995Z,26.19
2023-03-22T08:48:54.895Z,26.29
2023-03-22T08:49:59.962Z,26.14
2023-03-22T08:51:07.113Z,26.14
2023-03-22T08:52:12.107Z,26.13
2023-03-22T08:53:17.206Z,26.13
2023-03-22T08:54:22.280Z,26.14
2023-03-22T08:55:42.132Z,26.14
2023-03-22T08:56:46.013Z,26.15
2023-03-22T08:58:09.624Z,26.14
2023-03-22T08:59:31.890Z,26.13
2023-03-22T09:00:51.682Z,26.11
2023-03-22T09:02:00.470Z,26.00
2023-03-22T09:03:03.289Z,25.94
2023-03-22T09:04:07.415Z,25.93
2023-03-22T09:05:15.093Z,25.92
2023-03-22T09:06:19.665Z,25.92
2023-03-22T09:07:23.742Z,25.94
2023-03-22T09:08:29.164Z,25.93
2023-03-22T09:09:34.018Z,25.94
2023-03-22T09:10:39.784Z,25.94
2023-03-22T09:11:42.687Z,25.93
2023-03-22T09:12:48.209Z,25.94
2023-03-22T09:13:51.535Z,25.94
2023-03-22T09:14:56.926Z,25.92
2023-03-22T09:16:01.455Z,25.90
2023-03-22T09:17:05.926Z,25.88
2023-03-22T09:18:08.959Z,25.88
2023-03-22T09:19:12.415Z,25.88
2023-03-22T09:20:16.626Z,25.91
2023-03-22T09:21:21.256Z,25.92
2023-03-22T09:22:28.184Z,25.93
2023-03-22T09:23:32.156Z,25.94
2023-03-22T09:24:36.905Z,25.95
2023-03-22T09:25:45.039Z,25.95
2023-03-22T09:26:48.416Z,25.93
2023-03-22T09:27:52.848Z,25.93
2023-03-22T09:28:56.097Z,25.92
2023-03-22T09:29:59.531Z,25.89
2023-03-22T09:31:04.411Z,25.81
2023-03-22T09:32:07.094Z,25.71
2023-03-22T09:33:11.940Z,25.68
2023-03-22T09:34:16.222Z,25.65
2023-03-22T09:35:18.874Z,25.63
2023-03-22T09:36:27.011Z,25.58
2023-03-22T09:37:29.930Z,25.54
2023-03-22T09:38:35.673Z,25.51
2023-03-22T09:39:40.263Z,25.43
2023-03-22T09:40:55.004Z,25.42
2023-03-22T09:42:00.600Z,25.43
2023-03-22T09:43:07.430Z,25.46
2023-03-22T09:44:29.101Z,25.47
2023-03-22T09:45:36.516Z,25.47
2023-03-22T09:46:43.230Z,25.49
2023-03-22T09:47:48.759Z,25.49
2023-03-22T09:48:52.316Z,25.48
2023-03-22T09:49:58.788Z,25.46
2023-03-22T09:51:02.095Z,25.45
2023-03-22T09:52:07.981Z,25.45
2023-03-22T09:53:13.288Z,25.47
2023-03-22T09:54:27.156Z,25.50
2023-03-22T09:55:43.671Z,25.51
2023-03-22T09:56:53.282Z,25.51
2023-03-22T09:59:26.644Z,25.62
2023-03-22T10:00:50.271Z,25.49
2023-03-22T10:01:59.408Z,25.53
2023-03-22T10:03:35.662Z,25.54
2023-03-22T10:04:57.683Z,25.56
2023-03-22T10:06:10.192Z,25.56
2023-03-22T10:07:17.174Z,25.55
2023-03-22T10:08:29.313Z,25.49
2023-03-22T10:09:35.394Z,25.47
2023-03-22T10:10:41.170Z,25.42
2023-03-22T10:11:55.222Z,25.40
2023-03-22T10:13:07.638Z,25.39
2023-03-22T10:14:26.293Z,25.40
2023-03-22T10:16:48.288Z,25.53
2023-03-22T10:17:54.142Z,25.44
2023-03-22T10:19:04.431Z,25.44
2023-03-22T10:20:11.024Z,25.46
2023-03-22T10:21:15.827Z,25.46
2023-03-22T10:22:21.775Z,25.45
2023-03-22T10:23:32.138Z,25.46
2023-03-22T10:24:36.917Z,25.48
2023-03-22T10:25:42.025Z,25.49
2023-03-22T10:26:47.344Z,25.49
2023-03-22T10:27:50.694Z,25.48
2023-03-22T10:29:03.995Z,25.48
2023-03-22T10:30:22.644Z,25.50
2023-03-22T10:31:26.525Z,25.47
2023-03-22T10:32:32.156Z,25.44
2023-03-22T10:33:44.573Z,25.42
2023-03-22T10:34:48.859Z,25.41
2023-03-22T10:35:53.336Z,25.41
2023-03-22T10:36:56.002Z,25.41
2023-03-22T10:38:01.044Z,25.39
2023-03-22T10:39:15.117Z,25.40
2023-03-22T10:40:20.822Z,25.41
2023-03-22T10:41:24.763Z,25.35
2023-03-22T10:42:29.513Z,25.28
2023-03-22T10:43:34.515Z,25.22
2023-03-22T10:44:52.499Z,25.19
2023-03-22T10:45:55.561Z,25.17
2023-03-22T10:46:59.225Z,25.17
2023-03-22T10:49:31.701Z,25.26
2023-03-22T10:51:49.941Z,25.15
2023-03-22T10:54:12.005Z,25.12
2023-03-22T10:55:15.407Z,25.00
2023-03-22T10:56:20.682Z,25.01
2023-03-22T10:57:26.564Z,25.01
2023-03-22T10:58:35.193Z,25.01
2023-03-22T10:59:50.528Z,25.01
2023-03-22T11:00:56.236Z,25.03
2023-03-22T11:02:00.758Z,25.06
2023-03-22T11:03:05.501Z,25.08
2023-03-22T11:04:14.314Z,25.09
2023-03-22T11:05:23.639Z,25.10
2023-03-22T11:06:31.639Z,25.11
2023-03-22T11:07:36.014Z,25.11
2023-03-22T11:10:10.454Z,25.23
2023-03-22T11:11:25.451Z,25.12
2023-03-22T11:12:27.949Z,25.10
2023-03-22T11:13:30.963Z,25.11
2023-03-22T11:14:39.146Z,25.11
2023-03-22T11:17:14.132Z,25.22
2023-03-22T11:18:17.650Z,25.11
2023-03-22T11:19:28.642Z,25.09
2023-03-22T11:20:36.253Z,25.09
2023-03-22T11:21:38.752Z,25.11
2023-03-22T11:22:43.477Z,25.12
2023-03-22T11:23:50.031Z,25.13
2023-03-22T11:24:52.915Z,25.14
2023-03-22T12:01:37.930Z,22.80
2023-03-22T12:02:51.574Z,22.72
2023-03-22T12:03:56.291Z,22.78
2023-03-22T12:06:24.590Z,22.97
2023-03-22T12:07:29.696Z,23.10
2023-03-22T12:13:21.691Z,23.73
2023-03-22T12:14:34.743Z,23.83
2023-03-22T12:15:40.698Z,23.93
2023-03-22T12:16:48.833Z,24.05
2023-03-22T12:17:56.215Z,24.14
2023-03-22T12:19:06.433Z,24.23
2023-03-22T12:20:35.434Z,24.31
2023-03-22T12:21:38.735Z,24.41
2023-03-22T12:22:42.801Z,24.50
2023-03-22T12:23:45.282Z,24.56
2023-03-22T12:24:47.888Z,24.63
2023-03-22T12:27:22.754Z,24.86
2023-03-22T12:29:45.066Z,25.00
2023-03-22T12:30:52.237Z,24.94
2023-03-22T12:32:10.539Z,24.97
2023-03-22T12:34:43.443Z,25.19
2023-03-22T12:35:47.119Z,25.11
2023-03-22T12:36:56.228Z,25.15
2023-03-22T12:38:01.182Z,25.19
2023-03-22T12:39:04.565Z,25.22
2023-03-22T12:40:26.996Z,25.27
2023-03-22T12:41:38.478Z,25.30
2023-03-22T12:42:59.053Z,25.34
2023-03-22T12:44:05.108Z,25.36
2023-03-22T12:45:15.586Z,25.37
2023-03-22T12:47:48.906Z,25.50
2023-03-22T12:49:14.905Z,25.40
2023-03-22T12:50:29.256Z,25.41
2023-03-22T12:51:31.657Z,25.42
2023-03-22T12:52:50.928Z,25.44
2023-03-22T12:53:56.176Z,25.44
2023-03-22T12:55:01.078Z,25.45
2023-03-22T12:56:03.720Z,25.46
2023-03-22T12:57:06.495Z,25.47
2023-03-22T12:58:09.893Z,25.49
2023-03-22T12:59:17.928Z,25.50
2023-03-22T13:00:24.459Z,25.52
2023-03-22T13:01:46.655Z,25.54
2023-03-22T13:02:55.751Z,25.56
2023-03-22T13:03:59.081Z,25.59
2023-03-22T13:05:04.848Z,25.60
2023-03-22T13:06:31.119Z,25.60
2023-03-22T13:07:40.498Z,25.61
2023-03-22T13:09:04.350Z,25.62
2023-03-22T13:10:35.538Z,25.62
2023-03-22T13:13:16.704Z,25.63
2023-03-22T13:16:03.985Z,25.71
2023-03-22T13:17:07.955Z,25.62
2023-03-22T13:19:44.292Z,25.70
2023-03-22T13:20:46.768Z,25.55
2023-03-22T13:21:49.391Z,25.53
2023-03-22T13:22:55.925Z,25.51
2023-03-22T13:24:09.336Z,25.49
2023-03-22T13:25:20.151Z,25.49
2023-03-22T13:26:32.836Z,25.50
2023-03-22T13:29:21.375Z,25.59
2023-03-22T13:30:36.987Z,25.49
2023-03-22T13:31:44.836Z,25.47
2023-03-22T13:34:07.276Z,25.53
2023-03-22T13:35:23.957Z,25.42
2023-03-22T13:36:28.398Z,25.41
2023-03-22T13:37:39.983Z,25.41
2023-03-22T13:38:43.955Z,25.40
2023-03-22T13:39:51.216Z,25.38
2023-03-22T13:42:21.206Z,25.45
2023-03-22T13:43:43.310Z,25.32
2023-03-22T13:44:57.375Z,25.30
2023-03-22T13:47:32.928Z,25.35
2023-03-22T13:48:50.118Z,25.22
2023-03-22T13:49:55.045Z,25.19
2023-03-22T13:50:58.007Z,25.18
2023-03-22T13:52:01.720Z,25.17
2023-03-22T13:53:07.629Z,25.17
2023-03-22T13:54:16.614Z,25.17
2023-03-22T13:55:46.193Z,25.18
2023-03-22T13:58:52.952Z,25.31
2023-03-22T14:00:13.582Z,25.18
2023-03-22T14:02:45.049Z,25.23
2023-03-22T14:03:49.789Z,25.11
2023-03-22T14:04:56.848Z,25.10
2023-03-22T14:06:25.017Z,25.09
2023-03-22T14:07:46.440Z,25.08
2023-03-22T14:08:51.926Z,25.11
2023-03-22T14:10:16.132Z,25.13
2023-03-22T14:11:22.618Z,25.15
2023-03-22T14:13:53.780Z,25.33
2023-03-22T14:14:58.442Z,25.24
2023-03-22T14:17:34.295Z,25.38
2023-03-22T14:18:37.933Z,25.28
2023-03-22T14:19:40.877Z,25.31
2023-03-22T14:20:43.692Z,25.31
